createdAt,value
2022-10-10T00:01:43.122Z,101196.25
2022-10-10T00:04:11.356Z,101192.72
2022-10-10T00:06:39.306Z,101197.13
2022-10-10T00:09:07.836Z,101194.97
2022-10-10T00:11:36.376Z,101194.00
2022-10-10T00:14:05.716Z,101196.59
2022-10-10T00:16:34.151Z,101185.72
2022-10-10T00:19:02.246Z,101192.00
2022-10-10T00:21:31.218Z,101183.94
2022-10-10T00:24:00.906Z,101186.78
2022-10-10T00:26:28.858Z,101191.22
2022-10-10T00:28:57.037Z,101196.41
2022-10-10T00:31:25.237Z,101193.44
2022-10-10T00:33:53.357Z,101195.03
2022-10-10T00:36:21.690Z,101193.81
2022-10-10T00:38:49.675Z,101190.59
2022-10-10T00:41:18.116Z,101185.28
2022-10-10T00:44:05.327Z,101194.91
2022-10-10T00:46:33.397Z,101195.81
2022-10-10T00:49:04.057Z,101194.66
2022-10-10T00:51:32.767Z,101187.59
2022-10-10T00:54:06.175Z,101188.88
2022-10-10T00:56:45.037Z,101189.66
2022-10-10T00:59:14.810Z,101189.72
2022-10-10T01:01:43.318Z,101189.75
2022-10-10T01:04:31.091Z,101184.25
2022-10-10T01:07:00.644Z,101172.38
2022-10-10T01:09:29.460Z,101175.88
2022-10-10T01:12:17.566Z,101173.47
2022-10-10T01:15:07.717Z,101170.25
2022-10-10T01:17:45.996Z,101171.84
2022-10-10T01:20:56.320Z,101165.34
2022-10-10T01:23:30.095Z,101167.38
2022-10-10T01:26:16.110Z,101173.94
2022-10-10T01:28:59.606Z,101161.53
2022-10-10T01:31:29.775Z,101167.81
2022-10-10T01:34:22.366Z,101160.66
2022-10-10T01:37:01.868Z,101153.31
2022-10-10T01:39:43.136Z,101154.66
2022-10-10T01:42:52.119Z,101156.50
2022-10-10T01:45:21.398Z,101157.88
2022-10-10T01:47:51.597Z,101150.66
2022-10-10T01:50:24.825Z,101153.31
2022-10-10T01:53:23.875Z,101158.88
2022-10-10T01:55:59.143Z,101161.94
2022-10-10T01:58:51.936Z,101166.19
2022-10-10T02:01:34.756Z,101162.06
2022-10-10T02:04:39.367Z,101168.28
2022-10-10T02:07:11.557Z,101152.38
2022-10-10T02:09:43.209Z,101165.38
2022-10-10T02:12:14.239Z,101160.19
2022-10-10T02:14:46.777Z,101158.97
2022-10-10T02:17:16.351Z,101159.44
2022-10-10T02:19:55.404Z,101156.25
2022-10-10T02:22:25.029Z,101161.34
2022-10-10T02:24:54.876Z,101162.28
2022-10-10T02:27:40.316Z,101155.19
2022-10-10T02:30:09.485Z,101145.75
2022-10-10T02:32:54.647Z,101136.97
2022-10-10T02:35:28.697Z,101150.25
2022-10-10T02:38:00.415Z,101147.53
2022-10-10T02:40:32.458Z,101142.19
2022-10-10T02:43:03.775Z,101150.84
2022-10-10T02:45:33.767Z,101143.03
2022-10-10T02:48:03.329Z,101150.66
2022-10-10T02:50:32.157Z,101148.84
2022-10-10T02:53:00.517Z,101150.53
2022-10-10T02:55:28.767Z,101146.91
2022-10-10T02:57:57.536Z,101144.25
2022-10-10T03:00:25.701Z,101141.38
2022-10-10T03:02:53.816Z,101145.03
2022-10-10T03:05:22.177Z,101137.78
2022-10-10T03:07:50.756Z,101141.41
2022-10-10T03:10:18.805Z,101138.84
2022-10-10T03:12:46.665Z,101142.72
2022-10-10T03:15:14.835Z,101147.34
2022-10-10T03:17:42.835Z,101147.28
2022-10-10T03:20:11.775Z,101139.56
2022-10-10T03:22:39.956Z,101142.72
2022-10-10T03:25:08.155Z,101141.09
2022-10-10T03:27:36.326Z,101144.19
2022-10-10T03:30:05.629Z,101137.50
2022-10-10T03:32:33.716Z,101137.03
2022-10-10T03:35:01.515Z,101142.00
2022-10-10T03:37:29.566Z,101144.28
2022-10-10T03:39:57.465Z,101150.13
2022-10-10T03:42:25.581Z,101143.50
2022-10-10T03:44:53.595Z,101142.09
2022-10-10T03:47:21.803Z,101139.94
2022-10-10T03:49:49.615Z,101138.88
2022-10-10T03:52:17.697Z,101137.25
2022-10-10T03:54:45.498Z,101133.28
2022-10-10T03:57:13.765Z,101132.72
2022-10-10T03:59:41.506Z,101130.25
2022-10-10T04:02:09.626Z,101131.13
2022-10-10T04:04:37.371Z,101132.91
2022-10-10T04:07:05.525Z,101118.88
2022-10-10T04:09:33.309Z,101133.28
2022-10-10T04:12:02.216Z,101134.88
2022-10-10T04:14:30.196Z,101132.44
2022-10-10T04:17:02.293Z,101135.53
2022-10-10T04:19:31.166Z,101128.31
2022-10-10T04:21:59.147Z,101129.78
2022-10-10T04:24:27.035Z,101138.25
2022-10-10T04:26:55.138Z,101140.59
2022-10-10T04:29:23.065Z,101135.16
2022-10-10T04:31:51.156Z,101132.88
2022-10-10T04:34:20.025Z,101142.50
2022-10-10T04:36:48.085Z,101131.09
2022-10-10T04:39:15.956Z,101135.78
2022-10-10T04:41:43.999Z,101133.91
2022-10-10T04:44:11.806Z,101132.75
2022-10-10T04:46:40.025Z,101133.09
2022-10-10T04:49:08.145Z,101132.38
2022-10-10T04:51:36.318Z,101127.00
2022-10-10T04:54:04.886Z,101134.41
2022-10-10T04:56:33.148Z,101135.09
2022-10-10T04:59:00.986Z,101128.94
2022-10-10T05:01:29.200Z,101126.88
2022-10-10T05:03:57.264Z,101131.88
2022-10-10T05:06:25.476Z,101127.75
2022-10-10T05:08:53.326Z,101137.97
2022-10-10T05:11:21.477Z,101134.78
2022-10-10T05:13:50.906Z,101128.38
2022-10-10T05:16:19.016Z,101120.72
2022-10-10T05:18:46.907Z,101119.00
2022-10-10T05:21:14.976Z,101124.00
2022-10-10T05:23:42.936Z,101123.94
2022-10-10T05:26:11.225Z,101120.09
2022-10-10T05:28:39.370Z,101124.22
2022-10-10T05:31:08.215Z,101121.59
2022-10-10T05:33:35.975Z,101130.56
2022-10-10T05:36:11.146Z,101139.91
2022-10-10T05:38:40.916Z,101137.34
2022-10-10T05:41:09.846Z,101146.19
2022-10-10T05:43:37.771Z,101143.41
2022-10-10T05:46:06.390Z,101139.47
2022-10-10T05:48:34.284Z,101144.59
2022-10-10T05:51:02.452Z,101149.88
2022-10-10T05:53:31.000Z,101151.75
2022-10-10T05:56:02.559Z,101159.59
2022-10-10T05:58:30.971Z,101160.72
2022-10-10T06:01:06.400Z,101164.38
2022-10-10T06:03:34.769Z,101159.41
2022-10-10T06:06:04.491Z,101162.31
2022-10-10T06:08:32.641Z,101166.56
2022-10-10T06:11:08.259Z,101165.59
2022-10-10T06:13:37.469Z,101170.16
2022-10-10T06:16:05.634Z,101173.66
2022-10-10T06:18:33.503Z,101175.59
2022-10-10T06:21:07.416Z,101171.25
2022-10-10T06:23:35.242Z,101186.03
2022-10-10T06:26:03.383Z,101188.19
2022-10-10T06:28:31.530Z,101191.31
2022-10-10T06:31:01.980Z,101191.66
2022-10-10T06:33:30.634Z,101192.81
2022-10-10T06:35:59.139Z,101198.44
2022-10-10T06:38:27.844Z,101206.09
2022-10-10T06:41:00.249Z,101198.63
2022-10-10T06:43:29.035Z,101208.44
2022-10-10T06:45:57.401Z,101204.34
2022-10-10T06:48:25.335Z,101207.59
2022-10-10T06:51:05.474Z,101201.81
2022-10-10T06:53:34.757Z,101204.94
2022-10-10T06:56:03.679Z,101205.03
2022-10-10T06:58:33.110Z,101207.72
2022-10-10T07:01:04.698Z,101207.41
2022-10-10T07:03:32.708Z,101207.41
2022-10-10T07:06:02.512Z,101213.19
2022-10-10T07:08:30.986Z,101214.09
2022-10-10T07:10:59.157Z,101209.22
2022-10-10T07:13:27.060Z,101209.66
2022-10-10T07:15:55.225Z,101219.13
2022-10-10T07:18:23.859Z,101218.59
2022-10-10T07:20:55.963Z,101226.31
2022-10-10T07:23:24.258Z,101223.88
2022-10-10T07:25:53.359Z,101220.28
2022-10-10T07:28:21.169Z,101231.03
2022-10-10T07:30:49.352Z,101223.16
2022-10-10T07:33:17.749Z,101228.16
2022-10-10T07:35:54.327Z,101228.72
2022-10-10T07:38:22.160Z,101241.19
2022-10-10T07:40:50.431Z,101243.00
2022-10-10T07:43:18.328Z,101239.59
2022-10-10T07:45:46.428Z,101244.59
2022-10-10T07:48:14.418Z,101245.50
2022-10-10T07:50:44.206Z,101247.06
2022-10-10T07:53:12.447Z,101248.72
2022-10-10T07:55:44.767Z,101249.50
2022-10-10T07:58:13.157Z,101243.72
2022-10-10T08:00:42.302Z,101247.53
2022-10-10T08:03:12.104Z,101252.63
2022-10-10T08:05:42.928Z,101245.47
2022-10-10T08:08:11.818Z,101251.28
2022-10-10T08:10:44.997Z,101245.94
2022-10-10T08:13:13.082Z,101244.28
2022-10-10T08:15:41.791Z,101243.78
2022-10-10T08:18:09.687Z,101250.25
2022-10-10T08:20:37.791Z,101243.19
2022-10-10T08:23:05.828Z,101245.97
2022-10-10T08:25:33.895Z,101244.41
2022-10-10T08:28:02.327Z,101237.88
2022-10-10T08:30:30.430Z,101240.72
2022-10-10T08:32:58.426Z,101243.22
2022-10-10T08:35:26.477Z,101239.72
2022-10-10T08:37:55.126Z,101232.41
2022-10-10T08:40:24.189Z,101237.44
2022-10-10T08:42:55.134Z,101237.16
2022-10-10T08:45:27.547Z,101231.53
2022-10-10T08:48:03.328Z,101241.50
2022-10-10T08:50:37.749Z,101230.47
2022-10-10T08:53:19.237Z,101236.66
2022-10-10T08:55:48.186Z,101238.88
2022-10-10T08:58:21.248Z,101240.88
2022-10-10T09:00:55.283Z,101237.34
2022-10-10T09:03:34.447Z,101233.06
2022-10-10T09:06:32.807Z,101227.25
2022-10-10T09:09:22.111Z,101219.31
2022-10-10T09:12:17.967Z,101220.78
2022-10-10T09:15:02.070Z,101219.19
2022-10-10T09:17:56.870Z,101226.28
2022-10-10T09:20:27.738Z,101220.38
2022-10-10T09:22:59.768Z,101222.19
2022-10-10T09:25:45.667Z,101218.97
2022-10-10T09:28:39.222Z,101221.06
2022-10-10T09:31:38.378Z,101224.22
2022-10-10T09:34:14.878Z,101225.97
2022-10-10T09:36:44.928Z,101235.25
2022-10-10T09:39:55.768Z,101222.13
2022-10-10T09:42:33.987Z,101229.88
2022-10-10T09:45:02.686Z,101233.09
2022-10-10T09:47:30.585Z,101230.81
2022-10-10T09:49:59.420Z,101237.28
2022-10-10T09:52:30.968Z,101235.69
2022-10-10T09:55:06.095Z,101229.53
2022-10-10T09:57:41.394Z,101223.75
2022-10-10T10:00:34.923Z,101221.06
2022-10-10T10:03:18.029Z,101231.97
2022-10-10T10:06:00.937Z,101225.72
2022-10-10T10:08:35.998Z,101226.47
2022-10-10T10:11:05.858Z,101228.13
2022-10-10T10:13:37.265Z,101233.22
2022-10-10T10:16:09.578Z,101230.09
2022-10-10T10:18:46.736Z,101237.88
2022-10-10T10:21:23.867Z,101230.50
2022-10-10T10:24:02.190Z,101231.63
2022-10-10T10:26:44.422Z,101231.94
2022-10-10T10:29:46.275Z,101225.00
2022-10-10T10:32:38.957Z,101219.69
2022-10-10T10:35:44.540Z,101217.97
2022-10-10T10:38:42.888Z,101231.31
2022-10-10T10:41:13.648Z,101226.75
2022-10-10T10:43:57.942Z,101223.69
2022-10-10T10:46:52.378Z,101231.28
2022-10-10T10:49:36.342Z,101226.22
2022-10-10T10:52:07.208Z,101230.56
2022-10-10T10:54:57.258Z,101215.63
2022-10-10T10:58:10.339Z,101214.41
2022-10-10T11:01:22.521Z,101209.91
2022-10-10T11:05:15.757Z,101213.38
2022-10-10T11:07:17.405Z,101208.88
2022-10-10T11:10:08.970Z,101205.34
2022-10-10T11:12:57.969Z,101202.59
2022-10-10T11:16:05.455Z,101198.66
2022-10-10T11:18:33.119Z,101194.25
2022-10-10T11:21:14.750Z,101199.38
2022-10-10T11:23:56.630Z,101192.41
2022-10-10T11:26:32.359Z,101192.50
2022-10-10T11:29:06.229Z,101192.06
2022-10-10T11:31:43.403Z,101190.38
2022-10-10T11:34:34.223Z,101187.84
2022-10-10T11:37:08.813Z,101186.06
2022-10-10T11:39:51.383Z,101185.53
2022-10-10T11:42:21.573Z,101175.94
2022-10-10T11:44:59.087Z,101181.34
2022-10-10T11:47:35.690Z,101177.06
2022-10-10T11:50:18.670Z,101171.50
2022-10-10T11:52:56.665Z,101169.19
2022-10-10T11:55:39.204Z,101171.38
2022-10-10T11:58:07.236Z,101166.25
2022-10-10T12:00:43.898Z,101160.00
2022-10-10T12:03:12.135Z,101158.53
2022-10-10T12:05:48.846Z,101151.22
2022-10-10T12:08:26.572Z,101149.41
2022-10-10T12:11:22.313Z,101154.41
2022-10-10T12:13:56.824Z,101151.97
2022-10-10T12:16:36.325Z,101150.09
2022-10-10T12:19:16.470Z,101142.13
2022-10-10T12:22:06.063Z,101138.81
2022-10-10T12:25:15.452Z,101139.19
2022-10-10T12:27:48.309Z,101136.69
2022-10-10T12:30:20.906Z,101140.53
2022-10-10T12:32:50.605Z,101142.16
2022-10-10T12:35:36.816Z,101141.34
2022-10-10T12:38:05.684Z,101133.16
2022-10-10T12:40:35.551Z,101137.03
2022-10-10T12:43:25.456Z,101129.88
2022-10-10T12:45:53.534Z,101123.78
2022-10-10T12:48:23.146Z,101122.72
2022-10-10T12:51:22.256Z,101119.31
2022-10-10T12:53:55.795Z,101127.44
2022-10-10T12:56:37.035Z,101121.53
2022-10-10T12:59:14.431Z,101125.72
2022-10-10T13:01:46.674Z,101129.78
2022-10-10T13:04:19.544Z,101121.47
2022-10-10T13:06:52.996Z,101125.75
2022-10-10T13:09:32.389Z,101127.34
2022-10-10T13:12:07.456Z,101124.41
2022-10-10T13:14:44.177Z,101120.41
2022-10-10T13:17:29.304Z,101125.31
2022-10-10T13:20:01.951Z,101120.03
2022-10-10T13:22:32.906Z,101125.78
2022-10-10T13:25:01.833Z,101122.38
2022-10-10T13:27:33.890Z,101128.81
2022-10-10T13:30:02.636Z,101124.38
2022-10-10T13:32:36.157Z,101119.31
2022-10-10T13:35:17.486Z,101114.91
2022-10-10T13:37:52.855Z,101116.94
2022-10-10T13:40:21.974Z,101118.50
2022-10-10T13:42:51.183Z,101114.59
2022-10-10T13:45:30.372Z,101112.63
2022-10-10T13:48:02.643Z,101114.00
2022-10-10T13:50:34.274Z,101108.47
2022-10-10T13:53:27.074Z,101107.84
2022-10-10T13:56:12.579Z,101110.66
2022-10-10T13:59:05.363Z,101104.88
2022-10-10T14:01:35.704Z,101107.66
2022-10-10T14:04:50.346Z,101101.88
2022-10-10T14:07:28.131Z,101106.00
2022-10-10T14:10:01.735Z,101098.06
2022-10-10T14:12:41.827Z,101098.44
2022-10-10T14:15:35.417Z,101098.66
2022-10-10T14:18:23.168Z,101099.97
2022-10-10T14:20:53.666Z,101094.66
2022-10-10T14:23:22.629Z,101095.84
2022-10-10T14:25:51.097Z,101094.13
2022-10-10T14:28:25.140Z,101095.19
2022-10-10T14:30:53.469Z,101095.31
2022-10-10T14:33:22.169Z,101091.09
2022-10-10T14:35:52.540Z,101092.53
2022-10-10T14:38:20.841Z,101098.28
2022-10-10T14:40:50.937Z,101104.31
2022-10-10T14:43:20.838Z,101100.44
2022-10-10T14:45:54.358Z,101099.59
2022-10-10T14:48:22.752Z,101091.63
2022-10-10T14:50:51.534Z,101098.28
2022-10-10T14:53:19.590Z,101104.69
2022-10-10T14:55:49.035Z,101090.06
2022-10-10T14:58:22.488Z,101093.09
2022-10-10T15:00:52.718Z,101090.50
2022-10-10T15:03:21.664Z,101093.53
2022-10-10T15:05:50.980Z,101093.47
2022-10-10T15:08:19.598Z,101091.41
2022-10-10T15:10:48.318Z,101089.41
2022-10-10T15:13:17.208Z,101094.28
2022-10-10T15:15:48.057Z,101091.31
2022-10-10T15:18:39.650Z,101095.63
2022-10-10T15:21:11.872Z,101097.63
2022-10-10T15:23:39.827Z,101095.28
2022-10-10T15:26:08.509Z,101087.47
2022-10-10T15:28:37.021Z,101091.81
2022-10-10T15:31:05.910Z,101089.84
2022-10-10T15:33:34.319Z,101094.28
2022-10-10T15:36:09.946Z,101098.50
2022-10-10T15:38:39.368Z,101097.56
2022-10-10T15:41:09.860Z,101095.28
2022-10-10T15:43:54.734Z,101088.03
2022-10-10T15:46:25.278Z,101093.31
2022-10-10T15:49:00.819Z,101090.19
2022-10-10T15:51:29.685Z,101095.06
2022-10-10T15:53:59.508Z,101092.19
2022-10-10T15:56:29.868Z,101092.72
2022-10-10T15:59:00.480Z,101093.34
2022-10-10T16:01:29.987Z,101096.53
2022-10-10T16:03:58.998Z,101092.44
2022-10-10T16:06:27.087Z,101095.28
2022-10-10T16:09:10.109Z,101090.72
2022-10-10T16:11:43.964Z,101096.16
2022-10-10T16:14:12.040Z,101087.16
2022-10-10T16:16:40.265Z,101089.88
2022-10-10T16:19:08.786Z,101084.59
2022-10-10T16:21:36.875Z,101086.41
2022-10-10T16:24:05.165Z,101090.81
2022-10-10T16:26:35.597Z,101094.75
2022-10-10T16:29:06.842Z,101097.72
2022-10-10T16:31:37.066Z,101100.78
2022-10-10T16:34:06.944Z,101091.16
2022-10-10T16:36:37.612Z,101103.72
2022-10-10T16:39:05.905Z,101094.00
2022-10-10T16:41:47.549Z,101100.22
2022-10-10T16:44:17.636Z,101097.94
2022-10-10T16:46:46.054Z,101097.22
2022-10-10T16:49:17.211Z,101091.72
2022-10-10T16:51:45.385Z,101093.78
2022-10-10T16:54:13.351Z,101096.13
2022-10-10T16:56:42.157Z,101102.03
2022-10-10T16:59:10.094Z,101097.72
2022-10-10T17:01:38.483Z,101101.25
2022-10-10T17:04:06.664Z,101105.16
2022-10-10T17:06:38.235Z,101112.59
2022-10-10T17:09:08.182Z,101113.81
2022-10-10T17:11:36.505Z,101120.44
2022-10-10T17:14:04.569Z,101118.88
2022-10-10T17:19:21.116Z,101128.66
2022-10-10T17:21:49.655Z,101128.72
2022-10-10T17:24:17.946Z,101128.69
2022-10-10T17:26:46.083Z,101127.56
2022-10-10T17:29:14.584Z,101128.75
2022-10-10T17:31:43.325Z,101125.59
2022-10-10T17:34:11.587Z,101132.25
2022-10-10T17:36:39.978Z,101139.63
2022-10-10T17:39:09.434Z,101135.75
2022-10-10T17:41:37.877Z,101131.06
2022-10-10T17:44:11.047Z,101132.66
2022-10-10T17:46:39.563Z,101134.56
2022-10-10T17:49:11.158Z,101135.75
2022-10-10T17:51:40.926Z,101141.56
2022-10-10T17:54:10.379Z,101139.22
2022-10-10T17:56:39.467Z,101139.97
2022-10-10T17:59:08.172Z,101141.94
2022-10-10T18:01:37.641Z,101145.81
2022-10-10T18:04:06.882Z,101148.97
2022-10-10T18:06:38.207Z,101145.84
2022-10-10T18:09:07.614Z,101149.75
2022-10-10T18:11:35.819Z,101147.78
2022-10-10T18:14:04.486Z,101145.41
2022-10-10T18:16:34.549Z,101148.13
2022-10-10T18:19:08.147Z,101148.16
2022-10-10T18:21:36.618Z,101142.28
2022-10-10T18:24:04.985Z,101156.31
2022-10-10T18:26:35.314Z,101150.06
2022-10-10T18:29:04.178Z,101146.16
2022-10-10T18:31:34.843Z,101141.44
2022-10-10T18:34:04.451Z,101141.34
2022-10-10T18:36:37.255Z,101135.53
2022-10-10T18:39:09.756Z,101138.97
2022-10-10T18:41:38.112Z,101137.09
2022-10-10T18:44:09.013Z,101149.16
2022-10-10T18:46:37.396Z,101145.63
2022-10-10T18:49:09.546Z,101146.41
2022-10-10T18:51:40.208Z,101147.25
2022-10-10T18:54:09.415Z,101147.94
2022-10-10T18:56:39.154Z,101143.63
2022-10-10T18:59:26.298Z,101143.66
2022-10-10T19:01:55.547Z,101147.53
2022-10-10T19:04:25.019Z,101148.28
2022-10-10T19:06:57.326Z,101142.81
2022-10-10T19:09:27.206Z,101153.72
2022-10-10T19:11:55.536Z,101164.13
2022-10-10T19:14:23.765Z,101155.88
2022-10-10T19:16:52.099Z,101156.75
2022-10-10T19:19:20.991Z,101158.81
2022-10-10T19:21:49.562Z,101163.03
2022-10-10T19:24:21.499Z,101161.50
2022-10-10T19:27:03.835Z,101169.69
2022-10-10T19:29:32.709Z,101166.16
2022-10-10T19:32:00.763Z,101166.22
2022-10-10T19:34:29.004Z,101166.94
2022-10-10T19:36:58.464Z,101176.09
2022-10-10T19:39:26.388Z,101170.66
2022-10-10T19:41:54.299Z,101182.81
2022-10-10T19:44:22.497Z,101167.91
2022-10-10T19:46:50.423Z,101180.69
2022-10-10T19:49:18.418Z,101181.13
2022-10-10T19:51:46.657Z,101176.63
2022-10-10T19:54:14.704Z,101174.94
2022-10-10T19:56:42.694Z,101167.09
2022-10-10T19:59:10.958Z,101180.09
2022-10-10T20:01:38.933Z,101178.81
2022-10-10T20:04:07.096Z,101174.44
2022-10-10T20:06:36.007Z,101186.47
2022-10-10T20:09:09.705Z,101195.91
2022-10-10T20:11:40.025Z,101205.16
2022-10-10T20:14:08.722Z,101195.22
2022-10-10T20:16:37.285Z,101193.63
2022-10-10T20:19:05.583Z,101202.34
2022-10-10T20:21:34.913Z,101198.91
2022-10-10T20:24:09.670Z,101194.66
2022-10-10T20:26:37.886Z,101198.41
2022-10-10T20:29:07.278Z,101202.16
2022-10-10T20:31:37.013Z,101200.34
2022-10-10T20:34:07.223Z,101202.78
2022-10-10T20:36:35.928Z,101202.16
2022-10-10T20:39:09.731Z,101205.97
2022-10-10T20:41:39.407Z,101200.97
2022-10-10T20:44:09.313Z,101208.16
2022-10-10T20:46:40.105Z,101199.81
2022-10-10T20:49:20.577Z,101204.25
2022-10-10T20:51:52.145Z,101208.75
2022-10-10T20:54:22.674Z,101205.53
2022-10-10T20:56:50.683Z,101206.97
2022-10-10T20:59:19.693Z,101207.94
2022-10-10T21:01:47.949Z,101209.38
2022-10-10T21:04:16.344Z,101211.91
2022-10-10T21:06:44.814Z,101216.41
2022-10-10T21:09:15.476Z,101220.50
2022-10-10T21:11:46.434Z,101213.53
2022-10-10T21:14:18.303Z,101212.09
2022-10-10T21:16:46.347Z,101220.28
2022-10-10T21:19:14.586Z,101215.94
2022-10-10T21:21:42.968Z,101213.06
2022-10-10T21:24:12.247Z,101215.97
2022-10-10T21:26:42.165Z,101218.94
2022-10-10T21:29:10.405Z,101220.06
2022-10-10T21:31:40.416Z,101209.22
2022-10-10T21:34:13.635Z,101208.91
2022-10-10T21:36:42.057Z,101220.91
2022-10-10T21:39:11.875Z,101220.78
2022-10-10T21:41:40.168Z,101216.50
2022-10-10T21:44:08.527Z,101213.31
2022-10-10T21:46:37.465Z,101221.50
2022-10-10T21:49:11.672Z,101218.34
2022-10-10T21:51:43.721Z,101214.44
2022-10-10T21:54:12.549Z,101227.06
2022-10-10T21:56:41.149Z,101216.41
2022-10-10T21:59:09.103Z,101220.34
2022-10-10T22:01:37.911Z,101214.63
2022-10-10T22:04:06.885Z,101210.28
2022-10-10T22:06:35.225Z,101203.13
2022-10-10T22:09:04.271Z,101208.75
2022-10-10T22:11:34.457Z,101202.09
2022-10-10T22:14:03.449Z,101201.81
2022-10-10T22:16:35.124Z,101202.22
2022-10-10T22:19:04.496Z,101198.53
2022-10-10T22:21:35.218Z,101210.00
2022-10-10T22:24:06.655Z,101207.94
2022-10-10T22:26:35.592Z,101211.00
2022-10-10T22:29:04.884Z,101208.25
2022-10-10T22:31:35.810Z,101209.41
2022-10-10T22:34:07.476Z,101214.38
2022-10-10T22:36:35.744Z,101215.19
2022-10-10T22:39:05.028Z,101215.06
2022-10-10T22:41:33.014Z,101208.63
2022-10-10T22:44:01.027Z,101209.09
2022-10-10T22:46:29.594Z,101214.38
2022-10-10T22:48:57.907Z,101207.22
2022-10-10T22:51:26.012Z,101214.06
2022-10-10T22:53:54.478Z,101211.34
2022-10-10T22:56:22.822Z,101207.56
2022-10-10T22:58:51.803Z,101206.66
2022-10-10T23:01:23.669Z,101212.78
2022-10-10T23:04:00.757Z,101211.78
2022-10-10T23:06:29.745Z,101209.03
2022-10-10T23:08:58.346Z,101193.91
2022-10-10T23:11:26.360Z,101197.97
2022-10-10T23:13:54.533Z,101201.91
2022-10-10T23:16:22.923Z,101197.19
2022-10-10T23:18:51.064Z,101197.09
2022-10-10T23:21:19.542Z,101192.09
2022-10-10T23:23:47.546Z,101197.44
2022-10-10T23:26:15.585Z,101198.28
2022-10-10T23:28:47.029Z,101194.03
2022-10-10T23:31:15.328Z,101192.78
2022-10-10T23:33:44.676Z,101195.00
2022-10-10T23:36:16.304Z,101201.19
2022-10-10T23:38:44.462Z,101196.91
2022-10-10T23:41:13.514Z,101201.69
2022-10-10T23:43:41.886Z,101201.09
2022-10-10T23:46:10.248Z,101206.03
2022-10-10T23:48:38.814Z,101210.16
2022-10-10T23:51:07.177Z,101198.56
2022-10-10T23:53:35.895Z,101203.47
2022-10-10T23:56:04.565Z,101202.41
2022-10-10T23:58:32.959Z,101204.56
